Station: RENMARK AWS

  Atmospheric Gas Attenuation - ITU Rec 676-11   --------------- db/100km ---------------
Date Time Temp RH % AH g/m3 Dew Point Wind Direction Speed kph Gust kph Barometer mB Rainfall Since 9am 24GHz 47GHz 76GHz 122GHz 134GHz 241GHz
21 18:30 19.5 29 4.87 1 19 26 1005.8 0 11.5 18.8 23.9 62.2 48.6 164.6
21 18:20 19.8 27 4.61 0.3 22 26 1005.5 0 10.9 18.4 23.0 59.8 45.7 154.4
21 18:10 20.1 27 4.69 0.5 24 30 1005.3 0 11.1 18.5 23.2 60.2 46.4 156.7
21 18:00 20.3 26 4.57 0.2 28 50 1005.2 0 10.8 18.3 22.7 59.1 45.0 152.0
21 17:50 20.5 25 4.45 -0.2 30 33 1005.1 0 10.6 18.1 22.3 57.9 43.7 147.3
21 17:40 20.7 25 4.5 0 24 35 1005.1 0 10.7 18.1 22.4 58.2 44.1 148.7
21 17:30 21.1 24 4.42 -0.2 30 50 1004.9 0 10.5 17.9 22.1 57.2 43.0 145.1
21 17:20 21.4 24 4.5 0 32 35 1004.9 0 10.7 18.0 22.2 57.7 43.7 147.5
21 17:10 21.6 23 4.36 -0.4 35 41 1004.7 0 10.4 17.8 21.7 56.4 42.2 142.1
21 17:00 21.8 23 4.41 -0.2 33 46 1004.7 0 10.5 17.8 21.8 56.7 42.6 143.5
21 16:50 22.2 23 4.52 0.1 22 28 1004.6 0 10.7 17.8 22.1 57.3 43.5 146.7
21 16:40 22.4 23 4.57 0.3 24 30 1004.6 0 10.8 17.9 22.2 57.6 43.9 148.1
21 16:30 22.3 22 4.34 -0.4 35 50 1004.5 0 10.3 17.6 21.5 55.8 41.6 140.2
21 16:20 22.5 22 4.39 -0.3 30 35 1004.4 0 10.4 17.6 21.6 56.0 42.0 141.6
21 16:10 22.5 22 4.39 -0.3 33 39 1004.4 0 10.4 17.6 21.6 56.0 42.0 141.6
21 16:00 22.6 21 4.22 -0.8 35 52 1004.3 0 10.0 17.4 21.1 54.6 40.3 135.5
21 15:50 22.6 19 3.82 -2.2 41 50 1004.3 0 9.2 16.9 19.9 51.4 36.4 121.8
21 15:40 22.8 20 4.06 -1.3 43 48 1004.2 0 9.7 17.2 20.5 53.2 38.6 129.7
21 15:30 22.8 19 3.86 -2 39 54 1004.3 0 9.3 16.9 20.0 51.6 36.7 122.8
21 15:20 22.8 18 3.66 -2.7 39 46 1004.5 0 8.9 16.7 19.4 50.1 34.7 116.1
21 15:10 22.9 18 3.68 -2.6 35 46 1004.4 0 8.9 16.7 19.4 50.2 34.9 116.6
21 15:00 23.8 18 3.87 -1.9 37 59 1004.4 0 9.3 16.8 19.8 51.1 36.3 121.8
21 14:50 23.2 18 3.74 -2.4 30 35 1004.5 0 9.0 16.7 19.5 50.5 35.3 118.2
21 14:40 23.1 17 3.51 -3.3 43 50 1004.5 0 8.6 16.5 18.9 48.7 33.2 110.6
21 14:30 23.1 17 3.51 -3.3 37 52 1004.5 0 8.6 16.5 18.9 48.7 33.2 110.6
21 14:20 23.1 18 3.72 -2.5 37 43 1004.6 0 9.0 16.7 19.5 50.4 35.2 117.7
21 14:10 23 18 3.7 -2.6 46 52 1004.6 0 9.0 16.7 19.5 50.3 35.1 117.2
21 14:00 22.8 17 3.45 -3.5 35 56 1004.8 0 8.4 16.5 18.8 48.5 32.8 109.0
21 13:50 22.9 17 3.47 -3.4 39 46 1005 0 8.5 16.5 18.8 48.6 32.9 109.6
21 13:40 22.7 17 3.43 -3.6 43 50 1005.1 0 8.4 16.5 18.8 48.4 32.6 108.5
21 13:30 23.1 17 3.51 -3.3 35 56 1005.2 0 8.6 16.5 18.9 48.8 33.2 110.7
21 13:20 23.2 17 3.53 -3.2 33 41 1005.4 0 8.6 16.5 18.9 48.9 33.4 111.3
21 13:10 22.6 18 3.62 -2.9 32 37 1005.5 0 8.8 16.7 19.3 49.9 34.5 115.1
21 13:00 22 18 3.49 -3.4 35 56 1005.8 0 8.5 16.7 19.1 49.3 33.5 111.5
21 12:50 22.5 19 3.79 -2.2 39 48 1005.9 0 9.2 16.9 19.9 51.4 36.2 121.1
21 12:40 22 18 3.49 -3.4 39 48 1006.1 0 8.5 16.7 19.1 49.3 33.5 111.5
21 12:30 22.1 17 3.32 -4.1 37 54 1006.3 0 8.2 16.5 18.6 48.0 31.8 105.7
21 12:20 21.6 16 3.03 -5.3 39 43 1006.4 0 7.6 16.2 17.9 46.0 29.3 96.5
21 12:10 21.5 16 3.02 -5.3 30 35 1006.6 0 7.6 16.2 17.9 46.0 29.2 96.3
21 12:00 21.6 17 3.22 -4.5 32 48 1006.7 0 8.0 16.4 18.4 47.5 31.1 103.0
21 11:50 21.2 18 3.34 -4 26 32 1006.9 0 8.3 16.7 18.9 48.7 32.4 107.5
21 11:40 20.7 20 3.6 -3 30 35 1006.9 0 8.8 17.1 19.8 51.0 35.1 117.1
21 11:30 20.8 18 3.26 -4.4 32 39 1007.1 0 8.1 16.6 18.7 48.3 31.8 105.3
21 11:20 20.6 20 3.58 -3.1 30 35 1007.2 0 8.8 17.1 19.7 50.9 35.0 116.6
21 11:10 20.4 20 3.54 -3.3 32 39 1007.4 0 8.7 17.1 19.7 50.8 34.7 115.5
21 11:00 20.7 19 3.42 -3.7 30 46 1007.5 0 8.4 16.9 19.2 49.6 33.4 111.0
21 10:50 20 19 3.28 -4.3 30 35 1007.7 0 8.2 16.8 19.0 48.9 32.3 107.1
21 10:40 20 20 3.46 -3.6 33 41 1007.9 0 8.5 17.0 19.5 50.4 34.1 113.3
21 10:30 19.6 19 3.21 -4.6 28 44 1008.1 0 8.0 16.8 18.9 48.6 31.8 105.2
21 10:20 19.7 21 3.57 -3.2 20 24 1008 0 8.8 17.2 19.9 51.5 35.3 117.6
21 10:10 19.3 22 3.65 -2.9 22 28 1008.1 0 8.9 17.4 20.3 52.4 36.3 121.0
21 10:00 19.4 22 3.67 -2.8 24 33 1008.2 0 9.0 17.4 20.3 52.5 36.4 121.6
21 09:50 18.8 24 3.86 -2.2 26 32 1008.2 0 9.4 17.8 21.0 54.4 38.6 129.2
21 09:40 18.5 26 4.11 -1.3 28 30 1008.4 0 9.9 18.1 21.9 56.7 41.3 138.8
21 09:30 18 26 3.99 -1.8 28 35 1008.3 0 9.7 18.1 21.6 56.0 40.3 135.2
21 09:20 18 30 4.61 0.2 22 28 1008.4 0 11.0 18.9 23.6 61.3 46.9 158.2
21 09:10 17.5 29 4.32 -0.7 28 32 1008.4 0 10.4 18.6 22.8 59.2 44.1 148.2
21 09:00 17.1 31 4.51 -0.1 28 37 1008.3 0 10.8 18.9 23.5 61.1 46.3 156.1
21 08:50 15.9 33 4.47 -0.3 30 32 1008.2 0 10.8 19.1 23.7 61.6 46.5 156.8
21 08:40 17.1 30 4.37 -0.6 35 44 1007.9 0 10.5 18.7 23.1 59.9 44.8 150.8
21 08:30 16.9 32 4.6 0.1 30 35 1007.7 0 11.0 19.1 23.9 62.0 47.3 159.8
21 08:20 16.2 32 4.41 -0.5 33 39 1007.6 0 10.6 19.0 23.4 60.8 45.7 153.9
21 08:10 16 37 5.04 1.3 26 32 1007.6 0 12.0 19.8 25.6 66.6 52.7 178.6
21 08:00 15 45 5.77 3.2 24 32 1007.5 0 13.5 21.1 28.4 74.1 61.7 210.0
21 07:50 14.5 47 5.85 3.3 22 24 1007.5 0 13.7 21.3 28.9 75.3 63.0 214.6
21 07:40 13.8 51 6.08 3.9 19 22 1007.4 0 14.2 21.8 29.9 78.2 66.3 226.1
21 07:30 12.7 57 6.35 4.4 17 22 1007.4 0 14.8 22.5 31.3 81.9 70.5 240.7
21 07:20 11.9 60 6.36 4.4 17 19 1007.4 0 14.9 22.7 31.7 82.9 71.4 243.6
21 07:10 11.3 66 6.73 5.2 13 15 1007.5 0 15.7 23.4 33.3 87.3 76.6 261.7
21 07:00 10.9 66 6.57 4.8 11 13 1007.6 0 15.4 23.3 32.9 86.1 74.9 256.0
21 06:50 10.7 67 6.58 4.8 11 13 1007.6 0 15.4 23.3 33.0 86.4 75.3 257.1
21 06:40 10.8 67 6.62 4.9 13 15 1007.5 0 15.5 23.4 33.1 86.7 75.7 258.5
21 06:30 10.5 69 6.69 5.1 13 15 1007.4 0 15.7 23.5 33.5 87.7 76.8 262.6
21 06:20 10.7 67 6.58 4.8 13 13 1007.5 0 15.4 23.3 33.0 86.4 75.2 257.0
21 06:10 10.1 69 6.53 4.7 13 15 1007.4 0 15.3 23.4 33.1 86.5 75.2 256.7
21 06:00 9.9 70 6.54 4.7 13 13 1007.2 0 15.4 23.5 33.2 86.8 75.5 257.8
21 05:50 9.5 72 6.56 4.7 9 11 1007.2 0 15.4 23.6 33.4 87.5 76.1 260.0
21 05:40 10.4 66 6.36 4.3 9 9 1007.1 0 14.9 23.0 32.3 84.4 72.7 248.1
21 05:30 10.9 64 6.37 4.4 9 11 1007.1 0 15.0 22.9 32.1 84.0 72.4 247.0
21 05:20 11.3 62 6.33 4.3 9 11 1007.3 0 14.9 22.8 31.8 83.2 71.5 244.1
21 05:10 11.5 61 6.3 4.3 11 13 1007.4 0 14.8 22.7 31.6 82.7 71.0 242.2
21 04:50 12.4 57 6.23 4.1 11 13 1007.3 0 14.6 22.4 31.0 81.1 69.3 236.4
21 04:40 12.5 56 6.16 4 13 15 1007.2 0 14.4 22.2 30.7 80.3 68.4 233.1
21 04:30 12.3 58 6.3 4.3 9 11 1007.2 0 14.7 22.5 31.3 81.8 70.2 239.7
21 04:20 12.4 57 6.23 4.1 11 13 1007.3 0 14.6 22.4 31.0 81.1 69.3 236.4
21 04:10 12.3 61 6.62 5 7 7 1007.2 0 15.4 23.0 32.5 85.0 74.2 253.6
21 04:00 12.3 58 6.3 4.3 7 9 1007.1 0 14.7 22.5 31.3 81.8 70.2 239.7
21 03:50 12.4 57 6.23 4.1 7 7 1007.1 0 14.6 22.4 31.0 81.0 69.3 236.4
21 03:40 12.6 56 6.2 4.1 9 11 1007.2 0 14.5 22.3 30.8 80.5 68.8 234.5
21 03:30 13.4 51 5.93 3.5 9 13 1006.9 0 13.9 21.7 29.5 77.1 64.8 220.8
21 03:20 13.9 50 5.99 3.7 11 13 1007 0 14.0 21.6 29.6 77.2 65.1 221.9
21 03:10 14.3 48 5.9 3.5 15 19 1007.2 0 13.8 21.4 29.1 76.0 63.8 217.2
21 03:00 14.7 48 6.04 3.8 15 19 1007.1 0 14.1 21.5 29.5 76.9 65.1 221.8
21 02:50 14.8 49 6.21 4.2 13 15 1006.8 0 14.5 21.7 30.0 78.4 67.0 228.6
21 02:40 15.3 45 5.88 3.5 15 17 1006.7 0 13.7 21.1 28.7 74.8 62.7 213.6
21 02:30 15.6 45 5.98 3.7 19 26 1006.6 0 13.9 21.2 28.9 75.5 63.6 216.9
21 02:20 15.8 45 6.06 3.9 17 22 1006.9 0 14.1 21.3 29.1 76.1 64.4 219.6
21 02:10 15.9 44 5.96 3.7 17 24 1007.1 0 13.9 21.1 28.8 75.1 63.2 215.3
21 02:00 16.1 45 6.17 4.2 24 33 1007 0 14.3 21.4 29.4 76.8 65.4 223.3
21 01:50 16.1 51 6.99 6 22 28 1007 0 16.1 22.6 32.3 84.7 75.1 257.3

Last Refresh: 21-Sep-2020 18:41:45

Most of the information presented on this site is sourced from the Bureau of Meteorology.  Copyright in all material sourced from the Bureau of Meteorology resides with the Commonwealth of Australia.